Bunnlevel, North Carolina
Current Conditions -  °F | °C
As of 4:35 PM on Saturday 20 Dec 2014 (Local Time) from KHRJ Reporting Station
Overcast Overcast  
Wind Chill: 37°   Ceiling: 4000
Heat Index: 40°   Visibility: 10mi
Dew Point: 35°   Wind: 5mph
Humidity: 80%   Direction: 40°NE
Pressure: 30.25"   Gusts: NA
Location:  35.31°N, 78.78°W
Report Text: KHRJ 202135Z AUTO 04004KT 10SM SCT010 OVC040 05/02 A3025 RMK AO2 T00470015
Loading
Personal Weather Stations






























Interactive Weather Map New forecast layout! Learn more

10-Day Weather Forecast

Advertisements
Track Severe Weather on mobile